﻿<?xml version="1.0" encoding="utf-8"?><gpx creator="Garmin Desktop App" version="1.1" xsi:schemaLocation="http://www.topografix.com/GPX/1/1 http://www.topografix.com/GPX/1/1/gpx.xsd http://www.garmin.com/xmlschemas/WaypointExtension/v1 http://www8.garmin.com/xmlschemas/WaypointExtensionv1.xsd http://www.garmin.com/xmlschemas/TrackPointExtension/v1 http://www.garmin.com/xmlschemas/TrackPointExtensionv1.xsd http://www.garmin.com/xmlschemas/GpxExtensions/v3 http://www8.garmin.com/xmlschemas/GpxExtensionsv3.xsd http://www.garmin.com/xmlschemas/ActivityExtension/v1 http://www8.garmin.com/xmlschemas/ActivityExtensionv1.xsd http://www.garmin.com/xmlschemas/AdventuresExtensions/v1 http://www8.garmin.com/xmlschemas/AdventuresExtensionv1.xsd http://www.garmin.com/xmlschemas/PressureExtension/v1 http://www.garmin.com/xmlschemas/PressureExtensionv1.xsd http://www.garmin.com/xmlschemas/TripExtensions/v1 http://www.garmin.com/xmlschemas/TripExtensionsv1.xsd http://www.garmin.com/xmlschemas/TripMetaDataExtensions/v1 http://www.garmin.com/xmlschemas/TripMetaDataExtensionsv1.xsd http://www.garmin.com/xmlschemas/ViaPointTransportationModeExtensions/v1 http://www.garmin.com/xmlschemas/ViaPointTransportationModeExtensionsv1.xsd http://www.garmin.com/xmlschemas/CreationTimeExtension/v1 http://www.garmin.com/xmlschemas/CreationTimeExtensionsv1.xsd http://www.garmin.com/xmlschemas/AccelerationExtension/v1 http://www.garmin.com/xmlschemas/AccelerationExtensionv1.xsd http://www.garmin.com/xmlschemas/PowerExtension/v1 http://www.garmin.com/xmlschemas/PowerExtensionv1.xsd http://www.garmin.com/xmlschemas/VideoExtension/v1 http://www.garmin.com/xmlschemas/VideoExtensionv1.xsd" xmlns="http://www.topografix.com/GPX/1/1" xmlns:xsi="http://www.w3.org/2001/XMLSchema-instance" xmlns:wptx1="http://www.garmin.com/xmlschemas/WaypointExtension/v1" xmlns:gpxtrx="http://www.garmin.com/xmlschemas/GpxExtensions/v3" xmlns:gpxtpx="http://www.garmin.com/xmlschemas/TrackPointExtension/v1" xmlns:gpxx="http://www.garmin.com/xmlschemas/GpxExtensions/v3" xmlns:trp="http://www.garmin.com/xmlschemas/TripExtensions/v1" xmlns:adv="http://www.garmin.com/xmlschemas/AdventuresExtensions/v1" xmlns:prs="http://www.garmin.com/xmlschemas/PressureExtension/v1" xmlns:tmd="http://www.garmin.com/xmlschemas/TripMetaDataExtensions/v1" xmlns:vptm="http://www.garmin.com/xmlschemas/ViaPointTransportationModeExtensions/v1" xmlns:ctx="http://www.garmin.com/xmlschemas/CreationTimeExtension/v1" xmlns:gpxacc="http://www.garmin.com/xmlschemas/AccelerationExtension/v1" xmlns:gpxpx="http://www.garmin.com/xmlschemas/PowerExtension/v1" xmlns:vidx1="http://www.garmin.com/xmlschemas/VideoExtension/v1">

  <metadata>
    <link href="http://www.garmin.com">
      <text>Garmin International</text>
    </link>
    <time>2018-05-16T15:52:47Z</time>
    <bounds maxlat="50.483701061457396" maxlon="5.903927776962519" minlat="50.424325335770845" minlon="5.849175341427326" />
  </metadata>

  <wpt lat="50.477516390383244" lon="5.868753287941217">
    <ele>348.8359375</ele>
    <time>2015-08-31T19:27:05Z</time>
    <name>ferme transfaal chemin de la Herde</name>
    <sym>Lodge</sym>
    <type>user</type>
    <extensions>
      <gpxx:WaypointExtension>
        <gpxx:DisplayMode>SymbolAndName</gpxx:DisplayMode>
      </gpxx:WaypointExtension>
      <wptx1:WaypointExtension>
        <wptx1:DisplayMode>SymbolAndName</wptx1:DisplayMode>
      </wptx1:WaypointExtension>
      <ctx:CreationTimeExtension>
        <ctx:CreationTime>2015-08-31T19:27:05Z</ctx:CreationTime>
      </ctx:CreationTimeExtension>
    </extensions>
  </wpt>

  <trk>
    <name>bepijlde track 22km</name>
    <extensions>
      <gpxx:TrackExtension>
        <gpxx:DisplayColor>Red</gpxx:DisplayColor>
      </gpxx:TrackExtension>
    </extensions>
    <trkseg>
      <trkpt lat="50.477443719282746" lon="5.868959734216332">
        <ele>227.49000000000001</ele>
        <time>2015-09-06T07:57:55Z</time>
      </trkpt>
      <trkpt lat="50.477043064311147" lon="5.870308298617601">
        <ele>319.77999999999997</ele>
        <time>2015-09-06T08:01:52Z</time>
      </trkpt>
      <trkpt lat="50.476926052942872" lon="5.870737368240953">
        <ele>325.54000000000002</ele>
        <time>2015-09-06T08:02:14Z</time>
      </trkpt>
      <trkpt lat="50.476441495120525" lon="5.872476613149047">
        <ele>334.68000000000001</ele>
        <time>2015-09-06T08:04:08Z</time>
      </trkpt>
      <trkpt lat="50.476786997169256" lon="5.874114017933607">
        <ele>337.07999999999998</ele>
        <time>2015-09-06T08:05:44Z</time>
      </trkpt>
      <trkpt lat="50.477705150842667" lon="5.875508263707161">
        <ele>337.07999999999998</ele>
        <time>2015-09-06T08:07:22Z</time>
      </trkpt>
      <trkpt lat="50.478486595675349" lon="5.877011055126786">
        <ele>337.07999999999998</ele>
        <time>2015-09-06T08:09:08Z</time>
      </trkpt>
      <trkpt lat="50.479458393529058" lon="5.878669749945402">
        <ele>328.43000000000001</ele>
        <time>2015-09-06T08:10:54Z</time>
      </trkpt>
      <trkpt lat="50.48094735480845" lon="5.880031557753682">
        <ele>312.08999999999997</ele>
        <time>2015-09-06T08:13:43Z</time>
      </trkpt>
      <trkpt lat="50.482138255611062" lon="5.881011486053467">
        <ele>299.58999999999997</ele>
        <time>2015-09-06T08:16:18Z</time>
      </trkpt>
      <trkpt lat="50.483701061457396" lon="5.881721097975969">
        <ele>302.94999999999999</ele>
        <time>2015-09-06T08:17:41Z</time>
      </trkpt>
      <trkpt lat="50.483018355444074" lon="5.882307579740882">
        <ele>314.00999999999999</ele>
        <time>2015-09-06T08:19:28Z</time>
      </trkpt>
      <trkpt lat="50.481296628713608" lon="5.882225772365928">
        <ele>334.68000000000001</ele>
        <time>2015-09-06T08:21:03Z</time>
      </trkpt>
      <trkpt lat="50.480224918574095" lon="5.883250460028648">
        <ele>371.69</ele>
        <time>2015-09-06T08:23:50Z</time>
      </trkpt>
      <trkpt lat="50.479734074324369" lon="5.885546179488301">
        <ele>392.36000000000001</ele>
        <time>2015-09-06T08:26:18Z</time>
      </trkpt>
      <trkpt lat="50.47917902469635" lon="5.88797022588551">
        <ele>408.69999999999999</ele>
        <time>2015-09-06T08:28:41Z</time>
      </trkpt>
      <trkpt lat="50.479279356077313" lon="5.889929998666048">
        <ele>415.43000000000001</ele>
        <time>2015-09-06T08:30:53Z</time>
      </trkpt>
      <trkpt lat="50.478396909311414" lon="5.891018975526094">
        <ele>423.12</ele>
        <time>2015-09-06T08:34:09Z</time>
      </trkpt>
      <trkpt lat="50.476993108168244" lon="5.891470005735755">
        <ele>426.95999999999998</ele>
        <time>2015-09-06T08:35:46Z</time>
      </trkpt>
      <trkpt lat="50.475820982828736" lon="5.891735628247261">
        <ele>429.37</ele>
        <time>2015-09-06T08:36:21Z</time>
      </trkpt>
      <trkpt lat="50.474671656265855" lon="5.892204931005836">
        <ele>436.10000000000002</ele>
        <time>2015-09-06T08:36:58Z</time>
      </trkpt>
      <trkpt lat="50.473578907549381" lon="5.892902472987771">
        <ele>444.75</ele>
        <time>2015-09-06T08:38:24Z</time>
      </trkpt>
      <trkpt lat="50.472771311178803" lon="5.894330414012075">
        <ele>452.92000000000002</ele>
        <time>2015-09-06T08:40:42Z</time>
      </trkpt>
      <trkpt lat="50.472488002851605" lon="5.895916940644383">
        <ele>459.17000000000002</ele>
        <time>2015-09-06T08:42:01Z</time>
      </trkpt>
      <trkpt lat="50.4722517170012" lon="5.897488128393889">
        <ele>464.93000000000001</ele>
        <time>2015-09-06T08:43:19Z</time>
      </trkpt>
      <trkpt lat="50.471997410058975" lon="5.899093095213175">
        <ele>470.69999999999999</ele>
        <time>2015-09-06T08:44:41Z</time>
      </trkpt>
      <trkpt lat="50.471813092008233" lon="5.900801159441471">
        <ele>478.38999999999999</ele>
        <time>2015-09-06T08:46:12Z</time>
      </trkpt>
      <trkpt lat="50.471554258838296" lon="5.902437306940556">
        <ele>483.68000000000001</ele>
        <time>2015-09-06T08:47:36Z</time>
      </trkpt>
      <trkpt lat="50.471260724589229" lon="5.903927776962519">
        <ele>489.93000000000001</ele>
        <time>2015-09-06T08:48:53Z</time>
      </trkpt>
      <trkpt lat="50.470471316948533" lon="5.903086317703128">
        <ele>492.81</ele>
        <time>2015-09-06T08:49:21Z</time>
      </trkpt>
      <trkpt lat="50.469664391130209" lon="5.902253827080131">
        <ele>497.62</ele>
        <time>2015-09-06T08:49:40Z</time>
      </trkpt>
      <trkpt lat="50.46887188218534" lon="5.901422509923577">
        <ele>503.38999999999999</ele>
        <time>2015-09-06T08:49:59Z</time>
      </trkpt>
      <trkpt lat="50.468192361295223" lon="5.900380806997418">
        <ele>505.31</ele>
        <time>2015-09-06T08:50:30Z</time>
      </trkpt>
      <trkpt lat="50.467569837346673" lon="5.899192001670599">
        <ele>506.75</ele>
        <time>2015-09-06T08:51:00Z</time>
      </trkpt>
      <trkpt lat="50.466859973967075" lon="5.897837150841951">
        <ele>507.23000000000002</ele>
        <time>2015-09-06T08:51:50Z</time>
      </trkpt>
      <trkpt lat="50.46624256297946" lon="5.896657817065716">
        <ele>507.70999999999998</ele>
        <time>2015-09-06T08:52:16Z</time>
      </trkpt>
      <trkpt lat="50.46562984585762" lon="5.895488373935223">
        <ele>509.63999999999999</ele>
        <time>2015-09-06T08:52:42Z</time>
      </trkpt>
      <trkpt lat="50.465017044916749" lon="5.894291689619422">
        <ele>512.03999999999996</ele>
        <time>2015-09-06T08:53:09Z</time>
      </trkpt>
      <trkpt lat="50.464374404400587" lon="5.893051000311971">
        <ele>515.39999999999998</ele>
        <time>2015-09-06T08:53:55Z</time>
      </trkpt>
      <trkpt lat="50.463592037558556" lon="5.891620460897684">
        <ele>517.33000000000004</ele>
        <time>2015-09-06T08:55:14Z</time>
      </trkpt>
      <trkpt lat="50.462876306846738" lon="5.890233004465699">
        <ele>521.16999999999996</ele>
        <time>2015-09-06T08:56:30Z</time>
      </trkpt>
      <trkpt lat="50.462189074605703" lon="5.888847392052412">
        <ele>526.46000000000004</ele>
        <time>2015-09-06T08:57:49Z</time>
      </trkpt>
      <trkpt lat="50.46135189011693" lon="5.887205712497234">
        <ele>531.75</ele>
        <time>2015-09-06T08:59:29Z</time>
      </trkpt>
      <trkpt lat="50.460520321503282" lon="5.885749943554401">
        <ele>531.26999999999998</ele>
        <time>2015-09-06T09:01:11Z</time>
      </trkpt>
      <trkpt lat="50.459542572498322" lon="5.887200850993395">
        <ele>542.79999999999995</ele>
        <time>2015-09-06T09:02:59Z</time>
      </trkpt>
      <trkpt lat="50.458554346114397" lon="5.887896716594696">
        <ele>546.16999999999996</ele>
        <time>2015-09-06T09:04:19Z</time>
      </trkpt>
      <trkpt lat="50.457559749484062" lon="5.88799461722374">
        <ele>548.57000000000005</ele>
        <time>2015-09-06T09:05:37Z</time>
      </trkpt>
      <trkpt lat="50.456562973558903" lon="5.888123195618391">
        <ele>552.40999999999997</ele>
        <time>2015-09-06T09:06:57Z</time>
      </trkpt>
      <trkpt lat="50.455555804073811" lon="5.888715712353587">
        <ele>555.77999999999997</ele>
        <time>2015-09-06T09:08:29Z</time>
      </trkpt>
      <trkpt lat="50.454533044248819" lon="5.889279311522842">
        <ele>558.17999999999995</ele>
        <time>2015-09-06T09:10:06Z</time>
      </trkpt>
      <trkpt lat="50.453572981059551" lon="5.889872750267386">
        <ele>560.11000000000001</ele>
        <time>2015-09-06T09:10:33Z</time>
      </trkpt>
      <trkpt lat="50.452297171577811" lon="5.890025971457362">
        <ele>558.65999999999997</ele>
        <time>2015-09-06T09:11:52Z</time>
      </trkpt>
      <trkpt lat="50.451090261340141" lon="5.889842659235001">
        <ele>555.77999999999997</ele>
        <time>2015-09-06T09:13:52Z</time>
      </trkpt>
      <trkpt lat="50.4500493966043" lon="5.889691282063723">
        <ele>550.97000000000003</ele>
        <time>2015-09-06T09:16:11Z</time>
      </trkpt>
      <trkpt lat="50.449109952896833" lon="5.889444267377257">
        <ele>544.24000000000001</ele>
        <time>2015-09-06T09:17:48Z</time>
      </trkpt>
      <trkpt lat="50.44802600517869" lon="5.889016035944223">
        <ele>536.54999999999995</ele>
        <time>2015-09-06T09:19:13Z</time>
      </trkpt>
      <trkpt lat="50.447029648348689" lon="5.888821743428707">
        <ele>528.38</ele>
        <time>2015-09-06T09:20:25Z</time>
      </trkpt>
      <trkpt lat="50.445957267656922" lon="5.888801794499159">
        <ele>516.37</ele>
        <time>2015-09-06T09:21:45Z</time>
      </trkpt>
      <trkpt lat="50.444696294143796" lon="5.888890558853746">
        <ele>504.35000000000002</ele>
        <time>2015-09-06T09:23:38Z</time>
      </trkpt>
      <trkpt lat="50.443464405834675" lon="5.888721831142902">
        <ele>494.74000000000001</ele>
        <time>2015-09-06T09:24:37Z</time>
      </trkpt>
      <trkpt lat="50.442339051514864" lon="5.88934812694788">
        <ele>483.68000000000001</ele>
        <time>2015-09-06T09:25:27Z</time>
      </trkpt>
      <trkpt lat="50.441385693848133" lon="5.89073047041893">
        <ele>465.89999999999998</ele>
        <time>2015-09-06T09:27:12Z</time>
      </trkpt>
      <trkpt lat="50.44011902064085" lon="5.89028581045568">
        <ele>452.92000000000002</ele>
        <time>2015-09-06T09:29:18Z</time>
      </trkpt>
      <trkpt lat="50.439559444785118" lon="5.887734610587359">
        <ele>464.44999999999999</ele>
        <time>2015-09-06T09:31:44Z</time>
      </trkpt>
      <trkpt lat="50.437398422509432" lon="5.886422675102949">
        <ele>434.17000000000002</ele>
        <time>2015-09-06T09:35:14Z</time>
      </trkpt>
      <trkpt lat="50.436158990487456" lon="5.885174944996834">
        <ele>408.22000000000003</ele>
        <time>2015-09-06T09:37:40Z</time>
      </trkpt>
      <trkpt lat="50.434966580942273" lon="5.882562892511487">
        <ele>368.31999999999999</ele>
        <time>2015-09-06T09:40:54Z</time>
      </trkpt>
      <trkpt lat="50.433481810614467" lon="5.883961664512754">
        <ele>338.51999999999998</ele>
        <time>2015-09-06T09:43:26Z</time>
      </trkpt>
      <trkpt lat="50.432315971702337" lon="5.884620901197195">
        <ele>322.18000000000001</ele>
        <time>2015-09-06T09:45:16Z</time>
      </trkpt>
      <trkpt lat="50.431316178292036" lon="5.883749183267355">
        <ele>318.81</ele>
        <time>2015-09-06T09:47:19Z</time>
      </trkpt>
      <trkpt lat="50.430063167586923" lon="5.885283825919032">
        <ele>303.43000000000001</ele>
        <time>2015-09-06T09:49:40Z</time>
      </trkpt>
      <trkpt lat="50.429283399134874" lon="5.886669354513288">
        <ele>293.33999999999997</ele>
        <time>2015-09-06T09:51:05Z</time>
      </trkpt>
      <trkpt lat="50.428321659564972" lon="5.887564709410071">
        <ele>284.20999999999998</ele>
        <time>2015-09-06T09:53:00Z</time>
      </trkpt>
      <trkpt lat="50.427330248057842" lon="5.888121351599693">
        <ele>277.48000000000002</ele>
        <time>2015-09-06T09:54:22Z</time>
      </trkpt>
      <trkpt lat="50.426328191533685" lon="5.88781968690455">
        <ele>271.70999999999998</ele>
        <time>2015-09-06T09:56:06Z</time>
      </trkpt>
      <trkpt lat="50.42581245303154" lon="5.887132370844483">
        <ele>268.35000000000002</ele>
        <time>2015-09-06T09:57:20Z</time>
      </trkpt>
      <trkpt lat="50.425852686166763" lon="5.885360771790147">
        <ele>264.98000000000002</ele>
        <time>2015-09-06T09:58:49Z</time>
      </trkpt>
      <trkpt lat="50.425807675346732" lon="5.883581712841988">
        <ele>262.10000000000002</ele>
        <time>2015-09-06T10:00:17Z</time>
      </trkpt>
      <trkpt lat="50.426010685041547" lon="5.882755927741528">
        <ele>258.25</ele>
        <time>2015-09-06T10:01:51Z</time>
      </trkpt>
      <trkpt lat="50.426178826019168" lon="5.882610082626343">
        <ele>258.25</ele>
        <time>2015-09-06T10:39:55Z</time>
      </trkpt>
      <trkpt lat="50.425788732245564" lon="5.882861623540521">
        <ele>260.64999999999998</ele>
        <time>2015-09-06T11:12:09Z</time>
      </trkpt>
      <trkpt lat="50.425801305100322" lon="5.882865563035011">
        <ele>262.10000000000002</ele>
        <time>2015-09-06T11:28:19Z</time>
      </trkpt>
      <trkpt lat="50.425833575427532" lon="5.882783252745867">
        <ele>257.76999999999998</ele>
        <time>2015-09-06T11:40:41Z</time>
      </trkpt>
      <trkpt lat="50.425596451386809" lon="5.881826709955931">
        <ele>256.81</ele>
        <time>2015-09-06T11:50:40Z</time>
      </trkpt>
      <trkpt lat="50.425090687349439" lon="5.880510667338967">
        <ele>253.93000000000001</ele>
        <time>2015-09-06T11:52:07Z</time>
      </trkpt>
      <trkpt lat="50.425182217732072" lon="5.878674862906337">
        <ele>262.57999999999998</ele>
        <time>2015-09-06T11:54:12Z</time>
      </trkpt>
      <trkpt lat="50.425039809197187" lon="5.875992653891444">
        <ele>274.58999999999997</ele>
        <time>2015-09-06T11:55:31Z</time>
      </trkpt>
      <trkpt lat="50.425044419243932" lon="5.873890891671181">
        <ele>292.86000000000001</ele>
        <time>2015-09-06T11:57:25Z</time>
      </trkpt>
      <trkpt lat="50.424840738996863" lon="5.872154328972101">
        <ele>305.36000000000001</ele>
        <time>2015-09-06T11:58:51Z</time>
      </trkpt>
      <trkpt lat="50.424325335770845" lon="5.870611136779189">
        <ele>319.77999999999997</ele>
        <time>2015-09-06T12:00:19Z</time>
      </trkpt>
      <trkpt lat="50.424795309081674" lon="5.869270032271743">
        <ele>336.12</ele>
        <time>2015-09-06T12:02:00Z</time>
      </trkpt>
      <trkpt lat="50.425080126151443" lon="5.867468928918243">
        <ele>358.23000000000002</ele>
        <time>2015-09-06T12:03:45Z</time>
      </trkpt>
      <trkpt lat="50.425277184695005" lon="5.865558609366417">
        <ele>367.36000000000001</ele>
        <time>2015-09-06T12:05:25Z</time>
      </trkpt>
      <trkpt lat="50.425802394747734" lon="5.865428941324353">
        <ele>378.89999999999998</ele>
        <time>2015-09-06T12:07:15Z</time>
      </trkpt>
      <trkpt lat="50.426176059991121" lon="5.867234067991376">
        <ele>383.22000000000003</ele>
        <time>2015-09-06T12:08:48Z</time>
      </trkpt>
      <trkpt lat="50.426686182618141" lon="5.868830736726522">
        <ele>384.66000000000003</ele>
        <time>2015-09-06T12:10:06Z</time>
      </trkpt>
      <trkpt lat="50.42721826583147" lon="5.870396727696061">
        <ele>388.99000000000001</ele>
        <time>2015-09-06T12:11:19Z</time>
      </trkpt>
      <trkpt lat="50.4276760853827" lon="5.871793571859598">
        <ele>388.99000000000001</ele>
        <time>2015-09-06T12:12:32Z</time>
      </trkpt>
      <trkpt lat="50.428366838023067" lon="5.872986149042845">
        <ele>392.36000000000001</ele>
        <time>2015-09-06T12:13:45Z</time>
      </trkpt>
      <trkpt lat="50.429302174597979" lon="5.873821405693889">
        <ele>393.80000000000001</ele>
        <time>2015-09-06T12:14:21Z</time>
      </trkpt>
      <trkpt lat="50.430083954706788" lon="5.874855648726225">
        <ele>395.72000000000003</ele>
        <time>2015-09-06T12:15:16Z</time>
      </trkpt>
      <trkpt lat="50.430603045970201" lon="5.873500127345324">
        <ele>418.31</ele>
        <time>2015-09-06T12:16:48Z</time>
      </trkpt>
      <trkpt lat="50.43006501160562" lon="5.872203363105655">
        <ele>424.07999999999998</ele>
        <time>2015-09-06T12:17:08Z</time>
      </trkpt>
      <trkpt lat="50.429912293329835" lon="5.870727896690369">
        <ele>432.73000000000002</ele>
        <time>2015-09-06T12:18:37Z</time>
      </trkpt>
      <trkpt lat="50.431680204346776" lon="5.871039284393191">
        <ele>455.31999999999999</ele>
        <time>2015-09-06T12:21:07Z</time>
      </trkpt>
      <trkpt lat="50.432660970836878" lon="5.871069123968482">
        <ele>462.05000000000001</ele>
        <time>2015-09-06T12:22:34Z</time>
      </trkpt>
      <trkpt lat="50.433609047904611" lon="5.870765028521419">
        <ele>468.77999999999997</ele>
        <time>2015-09-06T12:23:46Z</time>
      </trkpt>
      <trkpt lat="50.434476910158992" lon="5.870167398825288">
        <ele>475.02999999999997</ele>
        <time>2015-09-06T12:25:09Z</time>
      </trkpt>
      <trkpt lat="50.435123825445771" lon="5.869104154407978">
        <ele>483.68000000000001</ele>
        <time>2015-09-06T12:26:33Z</time>
      </trkpt>
      <trkpt lat="50.435419287532568" lon="5.867622653022409">
        <ele>497.13999999999999</ele>
        <time>2015-09-06T12:27:59Z</time>
      </trkpt>
      <trkpt lat="50.435931254178286" lon="5.865728259086609">
        <ele>507.23000000000002</ele>
        <time>2015-09-06T12:29:41Z</time>
      </trkpt>
      <trkpt lat="50.436582779511809" lon="5.864533754065633">
        <ele>508.19</ele>
        <time>2015-09-06T12:30:33Z</time>
      </trkpt>
      <trkpt lat="50.437462124973536" lon="5.863712495192885">
        <ele>510.12</ele>
        <time>2015-09-06T12:31:06Z</time>
      </trkpt>
      <trkpt lat="50.43862771242857" lon="5.862915711477399">
        <ele>518.76999999999998</ele>
        <time>2015-09-06T12:31:49Z</time>
      </trkpt>
      <trkpt lat="50.439729932695627" lon="5.862510530278087">
        <ele>528.38</ele>
        <time>2015-09-06T12:32:31Z</time>
      </trkpt>
      <trkpt lat="50.440928041934967" lon="5.86233576759696">
        <ele>539.91999999999996</ele>
        <time>2015-09-06T12:33:48Z</time>
      </trkpt>
      <trkpt lat="50.441994806751609" lon="5.862202327698469">
        <ele>546.16999999999996</ele>
        <time>2015-09-06T12:34:28Z</time>
      </trkpt>
      <trkpt lat="50.44301169924438" lon="5.861666137352586">
        <ele>550.97000000000003</ele>
        <time>2015-09-06T12:35:05Z</time>
      </trkpt>
      <trkpt lat="50.443491144105792" lon="5.860181199386716">
        <ele>553.38</ele>
        <time>2015-09-06T12:36:19Z</time>
      </trkpt>
      <trkpt lat="50.444241324439645" lon="5.85914745926857">
        <ele>552.40999999999997</ele>
        <time>2015-09-06T12:37:43Z</time>
      </trkpt>
      <trkpt lat="50.445629116147757" lon="5.858370121568441">
        <ele>546.16999999999996</ele>
        <time>2015-09-06T12:39:35Z</time>
      </trkpt>
      <trkpt lat="50.44693686068058" lon="5.857607871294022">
        <ele>537.99000000000001</ele>
        <time>2015-09-06T12:41:03Z</time>
      </trkpt>
      <trkpt lat="50.447977473959327" lon="5.857790429145098">
        <ele>529.34000000000003</ele>
        <time>2015-09-06T12:42:17Z</time>
      </trkpt>
      <trkpt lat="50.448585413396358" lon="5.859347116202116">
        <ele>527.41999999999996</ele>
        <time>2015-09-06T12:42:55Z</time>
      </trkpt>
      <trkpt lat="50.449234088882804" lon="5.860893744975328">
        <ele>531.26999999999998</ele>
        <time>2015-09-06T12:43:16Z</time>
      </trkpt>
      <trkpt lat="50.449575819075108" lon="5.862653609365225">
        <ele>538.96000000000004</ele>
        <time>2015-09-06T12:43:48Z</time>
      </trkpt>
      <trkpt lat="50.449963649734855" lon="5.864704912528396">
        <ele>541.84000000000003</ele>
        <time>2015-09-06T12:44:45Z</time>
      </trkpt>
      <trkpt lat="50.450981967151165" lon="5.864894092082977">
        <ele>535.11000000000001</ele>
        <time>2015-09-06T12:45:21Z</time>
      </trkpt>
      <trkpt lat="50.452906955033541" lon="5.864108540117741">
        <ele>517.80999999999995</ele>
        <time>2015-09-06T12:47:12Z</time>
      </trkpt>
      <trkpt lat="50.454472946003079" lon="5.863494900986552">
        <ele>502.91000000000003</ele>
        <time>2015-09-06T12:49:01Z</time>
      </trkpt>
      <trkpt lat="50.455283643677831" lon="5.861152661964297">
        <ele>476.47000000000003</ele>
        <time>2015-09-06T12:51:06Z</time>
      </trkpt>
      <trkpt lat="50.456074979156256" lon="5.858476739376783">
        <ele>455.31999999999999</ele>
        <time>2015-09-06T12:53:24Z</time>
      </trkpt>
      <trkpt lat="50.456573870033026" lon="5.856110276654363">
        <ele>440.42000000000002</ele>
        <time>2015-09-06T12:54:54Z</time>
      </trkpt>
      <trkpt lat="50.458011953160167" lon="5.854094848036766">
        <ele>425.51999999999998</ele>
        <time>2015-09-06T12:57:11Z</time>
      </trkpt>
      <trkpt lat="50.459151640534401" lon="5.852250158786774">
        <ele>411.10000000000002</ele>
        <time>2015-09-06T12:59:03Z</time>
      </trkpt>
      <trkpt lat="50.460594585165381" lon="5.850806795060635">
        <ele>400.05000000000001</ele>
        <time>2015-09-06T13:00:52Z</time>
      </trkpt>
      <trkpt lat="50.46190844848752" lon="5.849175341427326">
        <ele>389.47000000000003</ele>
        <time>2015-09-06T13:02:52Z</time>
      </trkpt>
      <trkpt lat="50.463476199656725" lon="5.849222028627992">
        <ele>383.69999999999999</ele>
        <time>2015-09-06T13:05:19Z</time>
      </trkpt>
      <trkpt lat="50.464709429070354" lon="5.849754111841321">
        <ele>376.49000000000001</ele>
        <time>2015-09-06T13:07:08Z</time>
      </trkpt>
      <trkpt lat="50.466276342049241" lon="5.850027026608586">
        <ele>365.92000000000002</ele>
        <time>2015-09-06T13:09:01Z</time>
      </trkpt>
      <trkpt lat="50.466898530721664" lon="5.851820418611169">
        <ele>361.11000000000001</ele>
        <time>2015-09-06T13:10:30Z</time>
      </trkpt>
      <trkpt lat="50.467164320871234" lon="5.854261144995689">
        <ele>366.39999999999998</ele>
        <time>2015-09-06T13:11:09Z</time>
      </trkpt>
      <trkpt lat="50.467235650867224" lon="5.857622707262635">
        <ele>371.20999999999998</ele>
        <time>2015-09-06T13:11:49Z</time>
      </trkpt>
      <trkpt lat="50.467358697205782" lon="5.859786411747336">
        <ele>372.64999999999998</ele>
        <time>2015-09-06T13:12:26Z</time>
      </trkpt>
      <trkpt lat="50.467288792133331" lon="5.861899740993977">
        <ele>375.05000000000001</ele>
        <time>2015-09-06T13:13:04Z</time>
      </trkpt>
      <trkpt lat="50.468110470101237" lon="5.862694261595607">
        <ele>366.39999999999998</ele>
        <time>2015-09-06T13:14:21Z</time>
      </trkpt>
      <trkpt lat="50.469815349206328" lon="5.86260843090713">
        <ele>350.54000000000002</ele>
        <time>2015-09-06T13:15:47Z</time>
      </trkpt>
      <trkpt lat="50.471303723752499" lon="5.862203920260072">
        <ele>332.26999999999998</ele>
        <time>2015-09-06T13:17:59Z</time>
      </trkpt>
      <trkpt lat="50.472781537100673" lon="5.861038332805038">
        <ele>323.13999999999999</ele>
        <time>2015-09-06T13:19:47Z</time>
      </trkpt>
      <trkpt lat="50.473864646628499" lon="5.859896717593074">
        <ele>315.44999999999999</ele>
        <time>2015-09-06T13:21:22Z</time>
      </trkpt>
      <trkpt lat="50.475037693977356" lon="5.859548449516296">
        <ele>307.27999999999997</ele>
        <time>2015-09-06T13:22:52Z</time>
      </trkpt>
      <trkpt lat="50.476029608398676" lon="5.86039979942143">
        <ele>293.81999999999999</ele>
        <time>2015-09-06T13:24:31Z</time>
      </trkpt>
      <trkpt lat="50.477141970768571" lon="5.861234301701188">
        <ele>289.00999999999999</ele>
        <time>2015-09-06T13:26:01Z</time>
      </trkpt>
      <trkpt lat="50.478009330108762" lon="5.862102750688791">
        <ele>291.89999999999998</ele>
        <time>2015-09-06T13:27:18Z</time>
      </trkpt>
      <trkpt lat="50.479243230074644" lon="5.861187446862459">
        <ele>292.86000000000001</ele>
        <time>2015-09-06T13:28:58Z</time>
      </trkpt>
      <trkpt lat="50.478888005018234" lon="5.862763412296772">
        <ele>308.72000000000003</ele>
        <time>2015-09-06T13:30:17Z</time>
      </trkpt>
      <trkpt lat="50.478354748338461" lon="5.864339796826243">
        <ele>324.57999999999998</ele>
        <time>2015-09-06T13:31:40Z</time>
      </trkpt>
      <trkpt lat="50.477890893816948" lon="5.866078957915306">
        <ele>331.31</ele>
        <time>2015-09-06T13:33:09Z</time>
      </trkpt>
      <trkpt lat="50.47766424715519" lon="5.867708567529917">
        <ele>339</ele>
        <time>2015-09-06T13:34:45Z</time>
      </trkpt>
      <trkpt lat="50.477641113102436" lon="5.868853703141213">
        <ele>344.76999999999998</ele>
        <time>2015-09-06T13:37:20Z</time>
      </trkpt>
      <trkpt lat="50.477248588576913" lon="5.868727471679449">
        <ele>344.76999999999998</ele>
        <time>2015-09-06T13:42:25Z</time>
      </trkpt>
      <trkpt lat="50.477349003776908" lon="5.868655722588301">
        <ele>344.76999999999998</ele>
        <time>2015-09-06T13:46:15Z</time>
      </trkpt>
      <trkpt lat="50.477104755118489" lon="5.868720514699817">
        <ele>343.81</ele>
        <time>2015-09-06T13:48:31Z</time>
      </trkpt>
      <trkpt lat="50.477599455043674" lon="5.86882914416492">
        <ele>345.73000000000002</ele>
        <time>2015-09-06T13:55:42Z</time>
      </trkpt>
      <trkpt lat="50.477398876100779" lon="5.868743732571602">
        <ele>342.37</ele>
        <time>2015-09-06T13:58:09Z</time>
      </trkpt>
      <trkpt lat="50.477242050692439" lon="5.868391944095492">
        <ele>340.92000000000002</ele>
        <time>2015-09-06T14:01:19Z</time>
      </trkpt>
      <trkpt lat="50.477163679897785" lon="5.868263617157936">
        <ele>341.88999999999999</ele>
        <time>2015-09-06T14:06:01Z</time>
      </trkpt>
      <trkpt lat="50.477225454524159" lon="5.868333522230387">
        <ele>344.76999999999998</ele>
        <time>2015-09-06T14:37:34Z</time>
      </trkpt>
      <trkpt lat="50.477559138089418" lon="5.86871825158596">
        <ele>345.73000000000002</ele>
        <time>2015-09-06T14:39:53Z</time>
      </trkpt>
      <trkpt lat="50.477199889719486" lon="5.868842471390963">
        <ele>346.20999999999998</ele>
        <time>2015-09-06T14:44:38Z</time>
      </trkpt>
      <trkpt lat="50.477631473913789" lon="5.868066139519215">
        <ele>341.88999999999999</ele>
        <time>2015-09-06T14:46:30Z</time>
      </trkpt>
      <trkpt lat="50.47762518748641" lon="5.867479406297207">
        <ele>340.92000000000002</ele>
        <time>2015-09-06T14:48:17Z</time>
      </trkpt>
      <trkpt lat="50.477888798341155" lon="5.866190688684583">
        <ele>335.16000000000003</ele>
        <time>2015-09-06T14:48:58Z</time>
      </trkpt>
      <trkpt lat="50.478245364502072" lon="5.864771716296673">
        <ele>327.47000000000003</ele>
        <time>2015-09-06T14:49:12Z</time>
      </trkpt>
      <trkpt lat="50.478722043335438" lon="5.863326592370868">
        <ele>319.30000000000001</ele>
        <time>2015-09-06T14:49:23Z</time>
      </trkpt>
      <trkpt lat="50.47923375852406" lon="5.862026726827025">
        <ele>305.83999999999997</ele>
        <time>2015-09-06T14:49:35Z</time>
      </trkpt>
    </trkseg>
  </trk>

</gpx>